createdAt,value
2019-05-23T00:01:32.181Z,93.71
2019-05-23T00:04:42.928Z,93.85
2019-05-23T00:07:31.680Z,93.74
2019-05-23T00:10:38.453Z,93.60
2019-05-23T00:14:01.430Z,93.86
2019-05-23T00:16:31.858Z,94.12
2019-05-23T00:19:02.633Z,94.32
2019-05-23T00:21:34.670Z,94.13
2019-05-23T00:24:06.375Z,93.77
2019-05-23T00:26:39.616Z,93.79
2019-05-23T00:29:12.297Z,93.97
2019-05-23T00:31:48.190Z,93.94
2019-05-23T00:34:18.505Z,94.31
2019-05-23T00:36:50.417Z,94.31
2019-05-23T00:39:21.416Z,94.62
2019-05-23T00:41:53.902Z,94.54
2019-05-23T00:44:24.636Z,94.54
2019-05-23T00:46:55.048Z,94.72
2019-05-23T00:49:26.666Z,94.80
2019-05-23T00:51:56.882Z,95.17
2019-05-23T00:54:27.053Z,94.67
2019-05-23T00:56:59.233Z,94.74
2019-05-23T00:59:30.189Z,94.74
2019-05-23T01:02:01.271Z,94.74
2019-05-23T01:04:32.447Z,95.26
2019-05-23T01:07:03.345Z,95.43
2019-05-23T01:09:33.558Z,95.55
2019-05-23T01:12:08.030Z,95.34
2019-05-23T01:14:39.361Z,95.23
2019-05-23T01:17:10.149Z,95.18
2019-05-23T01:19:40.812Z,95.20
2019-05-23T01:22:14.111Z,95.34
2019-05-23T01:24:46.936Z,95.49
2019-05-23T01:27:18.713Z,95.80
2019-05-23T01:29:51.126Z,95.89
2019-05-23T01:32:32.173Z,95.78
2019-05-23T01:35:04.293Z,95.59
2019-05-23T01:37:34.594Z,95.82
2019-05-23T01:40:07.103Z,96.18
2019-05-23T01:42:38.419Z,96.21
2019-05-23T01:45:10.068Z,96.09
2019-05-23T01:47:40.461Z,95.95
2019-05-23T01:50:11.146Z,96.06
2019-05-23T01:52:42.532Z,96.02
2019-05-23T01:55:12.933Z,96.11
2019-05-23T01:57:44.925Z,96.28
2019-05-23T02:00:18.002Z,96.03
2019-05-23T02:02:48.788Z,95.96
2019-05-23T02:05:20.075Z,96.23
2019-05-23T02:07:52.151Z,96.42
2019-05-23T02:10:23.353Z,96.41
2019-05-23T02:12:53.843Z,96.27
2019-05-23T02:15:24.702Z,96.67
2019-05-23T02:17:55.156Z,97.02
2019-05-23T02:20:27.120Z,97.22
2019-05-23T02:22:58.435Z,96.78
2019-05-23T02:25:29.134Z,96.49
2019-05-23T02:27:59.492Z,96.29
2019-05-23T02:30:34.786Z,96.30
2019-05-23T02:33:02.564Z,96.37
2019-05-23T02:35:33.363Z,96.13
2019-05-23T02:38:31.585Z,96.62
2019-05-23T02:41:19.316Z,96.74
2019-05-23T02:43:55.309Z,96.68
2019-05-23T02:46:31.721Z,96.63
2019-05-23T02:49:04.892Z,96.49
2019-05-23T02:51:37.051Z,96.47
2019-05-23T02:54:09.527Z,96.81
2019-05-23T02:56:40.202Z,97.01
2019-05-23T02:59:19.324Z,97.05
2019-05-23T03:02:15.080Z,97.01
2019-05-23T03:04:47.735Z,96.92
2019-05-23T03:07:22.156Z,96.67
2019-05-23T03:09:52.637Z,96.69
2019-05-23T03:12:26.134Z,96.75
2019-05-23T03:14:58.893Z,96.84
2019-05-23T03:17:30.647Z,96.90
2019-05-23T03:20:02.973Z,96.90
2019-05-23T03:23:03.116Z,97.10
2019-05-23T03:26:15.495Z,97.10
2019-05-23T03:28:46.161Z,97.13
2019-05-23T03:31:32.649Z,97.24
2019-05-23T03:34:03.882Z,97.11
2019-05-23T03:36:34.383Z,97.41
2019-05-23T03:39:07.534Z,97.45
2019-05-23T03:41:39.432Z,97.50
2019-05-23T03:44:12.813Z,97.81
2019-05-23T03:46:46.370Z,97.97
2019-05-23T03:49:17.894Z,98.08
2019-05-23T03:51:48.227Z,98.23
2019-05-23T03:54:19.120Z,98.47
2019-05-23T03:56:49.750Z,98.74
2019-05-23T03:59:21.773Z,98.80
2019-05-23T04:01:54.925Z,99.08
2019-05-23T04:04:26.102Z,98.88
2019-05-23T04:06:57.317Z,98.62
2019-05-23T04:09:28.094Z,98.53
2019-05-23T04:11:58.324Z,98.50
2019-05-23T04:14:30.153Z,98.68
2019-05-23T04:17:01.127Z,98.74
2019-05-23T04:19:31.320Z,98.81
2019-05-23T04:22:01.554Z,98.88
2019-05-23T04:24:35.128Z,98.96
2019-05-23T04:27:07.972Z,99.00
2019-05-23T04:29:38.315Z,99.02
2019-05-23T04:32:09.617Z,98.88
2019-05-23T04:34:42.464Z,98.72
2019-05-23T04:37:12.897Z,98.60
2019-05-23T04:39:44.431Z,98.10
2019-05-23T04:42:15.118Z,97.46
2019-05-23T04:44:45.299Z,96.96
2019-05-23T04:47:15.420Z,96.72
2019-05-23T04:49:45.704Z,95.56
2019-05-23T04:52:16.578Z,95.73
2019-05-23T04:54:47.350Z,94.89
2019-05-23T04:57:18.989Z,94.11
2019-05-23T04:59:49.386Z,92.42
2019-05-23T05:02:27.056Z,93.30
2019-05-23T05:04:58.086Z,92.64
2019-05-23T05:07:29.191Z,91.72
2019-05-23T05:10:00.197Z,91.95
2019-05-23T05:12:31.673Z,92.72
2019-05-23T05:15:02.141Z,92.80
2019-05-23T05:17:33.415Z,94.25
2019-05-23T05:20:03.740Z,94.55
2019-05-23T05:22:33.852Z,94.64
2019-05-23T05:25:04.667Z,94.33
2019-05-23T05:27:35.191Z,94.48
2019-05-23T05:30:06.946Z,94.14
2019-05-23T05:32:44.645Z,93.64
2019-05-23T05:35:11.777Z,92.15
2019-05-23T05:37:41.859Z,90.57
2019-05-23T05:40:14.560Z,90.62
2019-05-23T05:42:46.015Z,88.17
2019-05-23T05:45:19.443Z,85.88
2019-05-23T05:47:50.136Z,84.45
2019-05-23T05:50:20.570Z,83.82
2019-05-23T05:52:50.961Z,83.21
2019-05-23T05:55:21.213Z,80.72
2019-05-23T05:57:51.850Z,78.32
2019-05-23T06:00:48.781Z,75.90
2019-05-23T06:03:20.280Z,74.66
2019-05-23T06:06:08.674Z,73.52
2019-05-23T06:08:40.657Z,71.67
2019-05-23T06:11:11.466Z,72.08
2019-05-23T06:13:42.179Z,71.51
2019-05-23T06:16:12.909Z,71.18
2019-05-23T06:18:43.401Z,71.28
2019-05-23T06:21:17.936Z,69.90
2019-05-23T06:23:48.373Z,66.94
2019-05-23T06:26:18.827Z,66.75
2019-05-23T06:28:49.648Z,66.07
2019-05-23T06:31:21.257Z,64.41
2019-05-23T06:33:51.536Z,64.08
2019-05-23T06:36:22.299Z,62.39
2019-05-23T06:38:54.472Z,61.72
2019-05-23T06:41:25.330Z,60.45
2019-05-23T06:43:55.512Z,60.04
2019-05-23T06:46:26.023Z,60.45
2019-05-23T06:48:57.373Z,59.34
2019-05-23T06:51:27.607Z,58.10
2019-05-23T06:53:58.140Z,58.41
2019-05-23T06:56:28.365Z,54.68
2019-05-23T06:58:58.527Z,53.93
2019-05-23T07:01:28.975Z,52.40
2019-05-23T07:04:00.355Z,53.17
2019-05-23T07:06:31.673Z,52.30
2019-05-23T07:09:02.141Z,50.71
2019-05-23T07:11:36.096Z,50.88
2019-05-23T07:14:06.942Z,51.68
2019-05-23T07:16:37.331Z,51.46
2019-05-23T07:19:07.599Z,49.66
2019-05-23T07:21:38.016Z,49.86
2019-05-23T07:24:08.885Z,48.12
2019-05-23T07:26:39.151Z,47.88
2019-05-23T07:29:10.600Z,48.78
2019-05-23T07:31:42.286Z,47.41
2019-05-23T07:34:12.963Z,45.62
2019-05-23T07:36:43.783Z,45.51
2019-05-23T07:39:17.916Z,44.82
2019-05-23T07:41:48.934Z,44.09
2019-05-23T07:44:19.392Z,42.11
2019-05-23T07:46:49.656Z,41.56
2019-05-23T07:49:20.085Z,42.12
2019-05-23T07:51:50.279Z,41.32
2019-05-23T07:54:35.059Z,40.96
2019-05-23T07:57:07.842Z,39.61
2019-05-23T07:59:39.811Z,40.86
2019-05-23T08:02:18.274Z,38.08
2019-05-23T08:04:50.407Z,38.65
2019-05-23T08:07:21.644Z,38.67
2019-05-23T08:09:51.809Z,36.35
2019-05-23T08:12:22.603Z,37.07
2019-05-23T08:14:54.062Z,36.04
2019-05-23T08:17:26.370Z,34.88
2019-05-23T08:19:56.662Z,34.17
2019-05-23T08:22:31.191Z,33.88
2019-05-23T08:25:01.574Z,32.88
2019-05-23T08:27:31.889Z,32.16
2019-05-23T08:30:02.607Z,31.17
2019-05-23T08:32:33.973Z,31.06
2019-05-23T08:35:04.715Z,30.63
2019-05-23T08:37:37.046Z,30.18
2019-05-23T08:40:09.690Z,30.08
2019-05-23T08:42:39.982Z,27.89
2019-05-23T08:45:10.465Z,28.67
2019-05-23T08:47:41.013Z,28.21
2019-05-23T08:50:12.002Z,28.11
2019-05-23T08:52:45.258Z,27.75
2019-05-23T08:55:21.404Z,26.04
2019-05-23T08:57:53.653Z,27.40
2019-05-23T09:00:26.976Z,27.02
2019-05-23T09:02:59.651Z,27.78
2019-05-23T09:05:32.222Z,26.66
2019-05-23T09:08:02.958Z,26.72
2019-05-23T09:10:34.642Z,26.59
2019-05-23T09:13:05.792Z,24.68
2019-05-23T09:15:37.722Z,25.21
2019-05-23T09:18:09.338Z,24.66
2019-05-23T09:20:39.505Z,24.86
2019-05-23T09:23:10.280Z,24.15
2019-05-23T09:25:42.331Z,23.72
2019-05-23T09:28:14.298Z,24.01
2019-05-23T09:30:44.681Z,24.80
2019-05-23T09:33:14.997Z,25.67
2019-05-23T09:35:50.265Z,25.06
2019-05-23T09:38:22.204Z,23.31
2019-05-23T09:40:52.466Z,24.47
2019-05-23T09:43:22.832Z,23.55
2019-05-23T09:45:53.167Z,22.58
2019-05-23T09:48:23.991Z,23.52
2019-05-23T09:50:54.420Z,23.04
2019-05-23T09:53:24.673Z,22.80
2019-05-23T09:55:56.032Z,21.59
2019-05-23T09:58:26.553Z,22.30
2019-05-23T10:00:56.754Z,23.38
2019-05-23T10:03:27.099Z,24.21
2019-05-23T10:05:57.257Z,23.18
2019-05-23T10:08:27.469Z,23.71
2019-05-23T10:10:58.588Z,22.16
2019-05-23T10:13:38.404Z,21.42
2019-05-23T10:16:06.845Z,23.00
2019-05-23T10:18:37.064Z,24.79
2019-05-23T10:21:07.369Z,22.77
2019-05-23T10:23:37.494Z,21.94
2019-05-23T10:26:08.313Z,21.22
2019-05-23T10:28:38.707Z,21.93
2019-05-23T10:31:12.118Z,22.01
2019-05-23T10:33:42.373Z,24.07
2019-05-23T10:36:17.050Z,23.28
2019-05-23T10:38:47.597Z,23.40
2019-05-23T10:41:17.894Z,22.32
2019-05-23T10:43:48.528Z,20.18
2019-05-23T10:46:19.768Z,19.99
2019-05-23T10:48:50.199Z,19.76
2019-05-23T10:51:20.480Z,19.69
2019-05-23T10:53:50.897Z,20.56
2019-05-23T10:56:21.699Z,20.74
2019-05-23T10:58:52.329Z,20.57
2019-05-23T11:01:22.984Z,20.15
2019-05-23T11:03:54.497Z,19.15
2019-05-23T11:06:25.001Z,17.32
2019-05-23T11:08:56.689Z,18.49
2019-05-23T11:11:27.235Z,20.37
2019-05-23T11:13:57.930Z,18.88
2019-05-23T11:16:28.580Z,17.26
2019-05-23T11:19:00.006Z,17.32
2019-05-23T11:24:24.751Z,16.31
2019-05-23T11:26:57.161Z,16.32
2019-05-23T11:29:27.691Z,16.17
2019-05-23T11:31:59.348Z,15.94
2019-05-23T11:34:30.880Z,15.39
2019-05-23T11:37:01.372Z,16.99
2019-05-23T11:39:32.217Z,15.74
2019-05-23T11:42:02.990Z,15.73
2019-05-23T11:44:33.754Z,15.98
2019-05-23T11:47:04.682Z,16.68
2019-05-23T11:49:35.293Z,14.88
2019-05-23T11:52:06.635Z,16.81
2019-05-23T11:54:38.407Z,17.94
2019-05-23T11:57:09.645Z,18.49
2019-05-23T11:59:40.491Z,16.74
2019-05-23T12:02:23.859Z,16.41
2019-05-23T12:04:55.343Z,16.32
2019-05-23T12:07:28.632Z,16.61
2019-05-23T12:10:00.251Z,17.20
2019-05-23T12:12:32.912Z,16.52
2019-05-23T12:15:05.200Z,17.68
2019-05-23T12:17:35.590Z,16.64
2019-05-23T12:20:09.401Z,17.77
2019-05-23T12:22:40.324Z,16.86
2019-05-23T12:25:21.929Z,17.79
2019-05-23T12:27:44.354Z,19.35
2019-05-23T12:30:15.966Z,19.96
2019-05-23T12:32:46.482Z,17.21
2019-05-23T12:35:16.903Z,17.05
2019-05-23T12:37:47.269Z,17.20
2019-05-23T12:40:17.951Z,16.93
2019-05-23T12:42:48.459Z,16.40
2019-05-23T12:45:21.599Z,16.38
2019-05-23T12:47:59.750Z,18.57
2019-05-23T12:50:35.347Z,19.30
2019-05-23T12:53:05.756Z,19.39
2019-05-23T12:55:36.782Z,18.83
2019-05-23T12:58:07.119Z,18.43
2019-05-23T13:00:49.970Z,17.67
2019-05-23T13:03:21.033Z,18.58
2019-05-23T13:05:51.646Z,20.86
2019-05-23T13:08:22.639Z,21.51
2019-05-23T13:10:53.018Z,20.78
2019-05-23T13:13:23.991Z,21.17
2019-05-23T13:15:54.860Z,21.71
2019-05-23T13:18:25.534Z,23.05
2019-05-23T13:20:59.311Z,22.00
2019-05-23T13:23:29.269Z,23.88
2019-05-23T13:25:59.773Z,23.01
2019-05-23T13:28:30.301Z,22.15
2019-05-23T13:31:00.840Z,23.56
2019-05-23T13:33:31.272Z,22.71
2019-05-23T13:36:02.225Z,24.51
2019-05-23T13:38:32.788Z,23.48
2019-05-23T13:41:04.975Z,23.60
2019-05-23T13:43:36.714Z,25.07
2019-05-23T13:46:07.212Z,24.54
2019-05-23T13:48:37.831Z,26.89
2019-05-23T13:51:08.657Z,26.57
2019-05-23T13:53:39.421Z,26.33
2019-05-23T13:56:10.969Z,25.68
2019-05-23T13:58:43.101Z,25.49
2019-05-23T14:01:13.554Z,26.15
2019-05-23T14:03:44.471Z,26.59
2019-05-23T14:06:16.287Z,26.44
2019-05-23T14:08:51.671Z,26.19
2019-05-23T14:11:22.533Z,26.74
2019-05-23T14:13:59.445Z,26.50
2019-05-23T14:16:27.249Z,29.33
2019-05-23T14:18:57.534Z,27.40
2019-05-23T14:21:31.230Z,28.11
2019-05-23T14:24:01.862Z,29.71
2019-05-23T14:26:37.798Z,28.68
2019-05-23T14:29:08.113Z,28.12
2019-05-23T14:31:45.458Z,27.81
2019-05-23T14:34:18.086Z,28.64
2019-05-23T14:37:00.854Z,29.87
2019-05-23T14:39:51.923Z,29.80
2019-05-23T14:42:43.945Z,30.57
2019-05-23T14:45:32.979Z,31.77
2019-05-23T14:48:24.707Z,31.72
2019-05-23T14:51:24.172Z,32.40
2019-05-23T14:54:12.797Z,31.29
2019-05-23T14:56:43.255Z,30.88
2019-05-23T14:59:13.427Z,32.12
2019-05-23T15:01:43.973Z,31.69
2019-05-23T15:04:14.590Z,30.31
2019-05-23T15:06:44.836Z,30.24
2019-05-23T15:09:15.006Z,31.44
2019-05-23T15:15:48.784Z,31.45
2019-05-23T15:18:19.174Z,32.45
2019-05-23T15:20:49.413Z,31.69
2019-05-23T15:23:19.718Z,31.42
2019-05-23T15:25:49.884Z,32.05
2019-05-23T15:28:20.086Z,31.25
2019-05-23T15:30:50.410Z,31.86
2019-05-23T15:33:20.650Z,32.39
2019-05-23T15:35:51.141Z,31.02
2019-05-23T15:38:21.590Z,32.42
2019-05-23T15:40:52.025Z,33.90
2019-05-23T15:43:22.391Z,32.77
2019-05-23T15:45:52.633Z,33.59
2019-05-23T15:48:22.849Z,32.92
2019-05-23T15:50:53.538Z,32.51
2019-05-23T15:53:30.213Z,32.08
2019-05-23T15:56:26.089Z,32.63
2019-05-23T15:58:49.539Z,33.86
2019-05-23T16:01:37.717Z,32.98
2019-05-23T16:04:11.397Z,32.86
2019-05-23T16:06:42.456Z,34.00
2019-05-23T16:09:28.736Z,32.88
2019-05-23T16:11:45.981Z,32.76
2019-05-23T16:14:16.454Z,33.55
2019-05-23T16:16:47.535Z,32.98
2019-05-23T16:19:18.114Z,33.46
2019-05-23T16:21:48.709Z,32.88
2019-05-23T16:24:19.242Z,33.20
2019-05-23T16:26:49.870Z,33.37
2019-05-23T16:29:21.019Z,33.70
2019-05-23T16:31:51.309Z,34.47
2019-05-23T16:34:23.762Z,34.52
2019-05-23T16:36:53.974Z,33.82
2019-05-23T16:39:24.238Z,33.53
2019-05-23T16:41:55.017Z,34.23
2019-05-23T16:44:25.357Z,34.38
2019-05-23T16:46:55.622Z,33.82
2019-05-23T16:49:25.929Z,33.35
2019-05-23T16:51:56.585Z,33.56
2019-05-23T16:54:31.720Z,33.42
2019-05-23T16:57:17.503Z,33.39
2019-05-23T16:59:59.419Z,33.35
2019-05-23T17:02:55.049Z,33.54
2019-05-23T17:05:47.279Z,34.46
2019-05-23T17:08:35.435Z,34.43
2019-05-23T17:11:14.614Z,34.37
2019-05-23T17:13:50.058Z,34.74
2019-05-23T17:16:36.271Z,35.21
2019-05-23T17:19:17.876Z,34.65
2019-05-23T17:22:02.013Z,34.80
2019-05-23T17:24:48.248Z,35.85
2019-05-23T17:27:36.457Z,35.71
2019-05-23T17:30:35.136Z,38.06
2019-05-23T17:33:07.505Z,36.42
2019-05-23T17:35:38.240Z,36.33
2019-05-23T17:38:11.418Z,36.63
2019-05-23T17:40:41.776Z,36.47
2019-05-23T17:43:12.501Z,37.06
2019-05-23T17:45:44.324Z,37.33
2019-05-23T17:48:15.276Z,36.26
2019-05-23T17:50:45.678Z,37.12
2019-05-23T17:53:17.027Z,38.28
2019-05-23T17:55:47.673Z,39.79
2019-05-23T17:58:20.098Z,44.03
2019-05-23T18:00:50.989Z,45.70
2019-05-23T18:03:22.234Z,46.81
2019-05-23T18:05:53.344Z,49.77
2019-05-23T18:08:24.807Z,50.46
2019-05-23T18:10:56.903Z,49.06
2019-05-23T18:13:28.167Z,48.14
2019-05-23T18:16:00.934Z,48.97
2019-05-23T18:18:32.072Z,50.87
2019-05-23T18:21:02.812Z,52.87
2019-05-23T18:23:33.059Z,52.62
2019-05-23T18:26:03.822Z,53.25
2019-05-23T18:28:34.121Z,53.10
2019-05-23T18:31:15.284Z,53.47
2019-05-23T18:33:46.252Z,54.20
2019-05-23T18:36:17.455Z,54.22
2019-05-23T18:38:47.950Z,55.06
2019-05-23T18:41:19.060Z,56.19
2019-05-23T18:43:50.443Z,57.59
2019-05-23T18:46:26.215Z,57.82
2019-05-23T18:48:56.931Z,59.68
2019-05-23T18:51:27.474Z,59.94
2019-05-23T18:53:57.885Z,60.38
2019-05-23T18:56:30.822Z,61.03
2019-05-23T18:59:01.858Z,62.05
2019-05-23T19:01:32.390Z,62.68
2019-05-23T19:04:03.103Z,62.63
2019-05-23T19:06:34.885Z,62.89
2019-05-23T19:09:09.613Z,63.03
2019-05-23T19:11:41.845Z,63.19
2019-05-23T19:14:12.363Z,63.83
2019-05-23T19:16:43.109Z,64.25
2019-05-23T19:19:13.929Z,64.29
2019-05-23T19:21:47.269Z,65.29
2019-05-23T19:24:17.735Z,64.99
2019-05-23T19:26:49.383Z,64.79
2019-05-23T19:29:20.661Z,64.64
2019-05-23T19:31:53.020Z,64.86
2019-05-23T19:34:23.482Z,65.18
2019-05-23T19:36:54.608Z,65.74
2019-05-23T19:39:25.501Z,66.06
2019-05-23T19:41:55.918Z,67.33
2019-05-23T19:44:26.583Z,67.42
2019-05-23T19:46:57.175Z,67.91
2019-05-23T19:49:28.487Z,68.07
2019-05-23T19:52:00.238Z,69.30
2019-05-23T19:54:31.416Z,70.23
2019-05-23T19:57:02.822Z,70.81
2019-05-23T19:59:33.831Z,70.94
2019-05-23T20:02:23.316Z,71.50
2019-05-23T20:05:02.778Z,72.36
2019-05-23T20:07:34.199Z,73.23
2019-05-23T20:10:05.356Z,73.47
2019-05-23T20:12:37.075Z,74.23
2019-05-23T20:15:07.870Z,74.63
2019-05-23T20:17:38.810Z,74.99
2019-05-23T20:20:09.661Z,75.27
2019-05-23T20:22:40.564Z,75.13
2019-05-23T20:25:14.962Z,76.31
2019-05-23T20:27:45.832Z,77.05
2019-05-23T20:30:40.123Z,77.37
2019-05-23T20:33:10.921Z,77.33
2019-05-23T20:35:41.722Z,77.90
2019-05-23T20:38:13.213Z,78.67
2019-05-23T20:40:43.831Z,79.42
2019-05-23T20:43:14.696Z,79.75
2019-05-23T20:45:45.210Z,79.92
2019-05-23T20:48:16.350Z,80.01
2019-05-23T20:50:48.980Z,79.63
2019-05-23T20:53:20.005Z,79.59
2019-05-23T20:55:50.724Z,79.63
2019-05-23T20:58:21.964Z,79.40
2019-05-23T21:01:26.979Z,79.74
2019-05-23T21:03:58.765Z,79.92
2019-05-23T21:06:30.960Z,80.81
2019-05-23T21:09:02.081Z,81.73
2019-05-23T21:11:32.933Z,82.01
2019-05-23T21:14:03.638Z,81.93
2019-05-23T21:16:33.915Z,81.90
2019-05-23T21:19:04.355Z,82.25
2019-05-23T21:21:34.638Z,82.62
2019-05-23T21:24:05.289Z,83.29
2019-05-23T21:26:35.666Z,83.62
2019-05-23T21:29:05.972Z,83.92
2019-05-23T21:31:36.453Z,84.22
2019-05-23T21:34:06.840Z,83.96
2019-05-23T21:36:37.100Z,84.09
2019-05-23T21:39:09.880Z,84.63
2019-05-23T21:41:40.225Z,84.54
2019-05-23T21:44:10.486Z,84.44
2019-05-23T21:46:43.003Z,84.61
2019-05-23T21:49:13.452Z,85.17
2019-05-23T21:51:43.701Z,85.73
2019-05-23T21:54:12.979Z,85.52
2019-05-23T21:56:44.063Z,85.79
2019-05-23T21:59:15.405Z,86.89
2019-05-23T22:02:03.611Z,86.79
2019-05-23T22:04:43.345Z,86.80
2019-05-23T22:07:14.055Z,86.97
2019-05-23T22:09:44.541Z,86.67
2019-05-23T22:12:16.503Z,87.51
2019-05-23T22:14:47.430Z,87.35
2019-05-23T22:17:19.729Z,87.32
2019-05-23T22:19:50.170Z,87.67
2019-05-23T22:30:16.750Z,87.49
2019-05-23T22:32:47.467Z,87.50
2019-05-23T22:35:20.031Z,87.42
2019-05-23T22:37:50.392Z,87.53
2019-05-23T22:40:22.010Z,87.55
2019-05-23T22:42:52.749Z,87.87
2019-05-23T22:45:25.205Z,87.66
2019-05-23T22:47:55.623Z,87.67
2019-05-23T22:50:25.781Z,87.84
2019-05-23T22:52:56.099Z,88.78
2019-05-23T22:55:26.494Z,88.81
2019-05-23T22:57:56.895Z,89.11
2019-05-23T23:00:34.705Z,89.03
2019-05-23T23:03:05.164Z,89.04
2019-05-23T23:05:35.605Z,89.17
2019-05-23T23:08:05.949Z,89.17
2019-05-23T23:10:36.427Z,89.25
2019-05-23T23:13:06.961Z,89.30
2019-05-23T23:15:37.185Z,89.38
2019-05-23T23:18:07.869Z,89.55
2019-05-23T23:20:38.383Z,89.76
2019-05-23T23:23:08.655Z,89.87
2019-05-23T23:25:41.748Z,90.09
2019-05-23T23:28:11.972Z,90.35
2019-05-23T23:30:44.311Z,89.71
2019-05-23T23:33:14.512Z,90.50
2019-05-23T23:35:44.765Z,90.93
2019-05-23T23:38:15.122Z,90.66
2019-05-23T23:40:45.884Z,90.13
2019-05-23T23:43:16.135Z,90.04
2019-05-23T23:46:04.009Z,90.24
